Cayuga, Illinois
Current Conditions -  °F | °C
As of 12:55 PM on Friday 31 Oct 2014 (Local Time) from KPNT Reporting Station
Broken Clouds Broken Clouds  
Wind Chill: 31°   Ceiling: 4200
Heat Index: 42°   Visibility: 10mi
Dew Point: 25°   Wind: 28mph
Humidity: 52%   Direction: 340°NNW
Pressure: 30.21"   Gusts: 40mph
Location:  40.8602°N, 88.6284°W
Report Text: KPNT 311755Z AUTO 34024G35KT 10SM BKN042 BKN048 05/M04 A3021 RMK AO2 T00541038 10063 20025
Loading
Personal Weather Stations






























Interactive Weather Map
Tropical Storm Tracking
New forecast layout! Learn more

10-Day Weather Forecast

Advertisements
Track Severe Weather on mobile